Time;durP1;ratioP1;P1;durP2;ratioP2;P2;SDS_P1;SDS_P2;PMS_P1;PMS_P2;Temp;Humidity;BMP_temperature;BMP_pressure;BME280_temperature;BME280_humidity;BME280_pressure;Samples;Min_cycle;Max_cycle;Signal;HPM_P1;HPM_P2
2023/06/01 00:00:55;;;;;;;3.75;2.08;;;;;;;17.16;64.25;100662.59;5012885;28;20120;-88
2023/06/01 00:03:29;;;;;;;3.35;2.05;;;;;;;17.30;63.72;100693.75;5030049;28;20045;-89
2023/06/01 00:05:57;;;;;;;5.38;2.30;;;;;;;17.27;64.18;100693.97;5027620;28;20100;-91
2023/06/01 00:08:26;;;;;;;4.05;2.03;;;;;;;17.21;64.50;100692.56;5044465;28;20045;-90
2023/06/01 00:10:53;;;;;;;5.85;2.42;;;;;;;17.27;64.71;100699.31;5011322;28;20030;-89
2023/06/01 00:13:21;;;;;;;3.63;1.80;;;;;;;17.11;65.31;100679.00;5044451;28;20041;-89
2023/06/01 00:15:51;;;;;;;3.58;1.83;;;;;;;17.18;65.55;100687.44;5024391;28;20064;-88
2023/06/01 00:18:18;;;;;;;4.15;2.10;;;;;;;17.18;66.00;100693.63;5026598;28;20046;-89
2023/06/01 00:20:44;;;;;;;7.68;2.20;;;;;;;17.20;66.10;100698.88;5027591;28;20132;-90
2023/06/01 00:23:11;;;;;;;4.65;2.20;;;;;;;17.18;66.68;100701.66;5012130;28;20080;-90
2023/06/01 00:25:47;;;;;;;4.57;2.00;;;;;;;17.22;66.75;100688.94;5034058;28;20041;-88
2023/06/01 00:28:15;;;;;;;6.13;2.45;;;;;;;17.10;67.12;100685.28;5022383;28;20041;-90
2023/06/01 00:30:43;;;;;;;5.18;2.13;;;;;;;17.12;67.58;100690.53;5024490;28;20053;-90
2023/06/01 00:33:20;;;;;;;6.10;2.08;;;;;;;16.99;68.16;100677.16;5053101;28;20037;-90
2023/06/01 00:35:47;;;;;;;5.25;2.08;;;;;;;17.09;68.22;100688.94;5031684;28;20045;-90
2023/06/01 00:38:14;;;;;;;5.45;2.10;;;;;;;17.10;68.16;100692.47;5026427;28;20068;-89
2023/06/01 00:41:01;;;;;;;3.65;2.40;;;;;;;17.06;68.96;100686.47;5029740;28;20048;-90
2023/06/01 00:43:29;;;;;;;4.75;2.38;;;;;;;17.08;69.46;100689.91;5025687;28;20045;-90
2023/06/01 00:45:56;;;;;;;3.67;2.30;;;;;;;17.07;69.38;100684.66;5026566;28;20056;-89
2023/06/01 00:48:27;;;;;;;4.82;2.33;;;;;;;17.06;70.15;100686.47;5010677;28;20042;-90
2023/06/01 00:50:58;;;;;;;4.82;2.22;;;;;;;17.06;70.30;100689.13;5026983;28;20451;-90
2023/06/01 00:53:27;;;;;;;4.20;2.15;;;;;;;16.99;71.03;100689.69;5026423;28;20054;-90
2023/06/01 00:55:54;;;;;;;5.57;2.40;;;;;;;16.76;71.52;100659.16;5029784;28;20038;-89
2023/06/01 00:58:27;;;;;;;3.40;2.08;;;;;;;16.91;72.13;100692.00;5033380;28;20053;-89
2023/06/01 01:00:55;;;;;;;4.88;2.20;;;;;;;16.85;72.45;100682.56;5030061;28;20068;-89
2023/06/01 01:03:25;;;;;;;4.32;2.10;;;;;;;16.70;73.28;100657.75;5027465;28;20057;-90
2023/06/01 01:06:11;;;;;;;5.57;2.35;;;;;;;16.78;74.24;100681.31;5042929;28;20056;-90
2023/06/01 01:08:59;;;;;;;3.00;2.20;;;;;;;16.69;74.40;100677.41;5029858;28;20045;-89
2023/06/01 01:11:31;;;;;;;3.38;2.17;;;;;;;16.51;74.93;100649.25;5028553;28;20049;-89
2023/06/01 01:14:11;;;;;;;3.65;2.03;;;;;;;16.53;75.22;100666.00;5030902;28;20140;-89
2023/06/01 01:17:10;;;;;;;3.63;1.92;;;;;;;16.54;75.40;100658.84;5030158;28;20041;-90
2023/06/01 01:19:53;;;;;;;4.10;2.50;;;;;;;16.61;75.55;100674.38;5044751;28;20056;-89
2023/06/01 01:22:38;;;;;;;5.30;2.28;;;;;;;16.66;76.49;100683.00;5029490;28;20049;-89
2023/06/01 01:25:36;;;;;;;3.28;1.98;;;;;;;16.45;77.37;100655.00;5028560;28;20051;-89
2023/06/01 01:28:35;;;;;;;4.53;2.45;;;;;;;16.54;77.71;100685.59;5043127;28;20045;-90
2023/06/01 01:31:06;;;;;;;3.92;2.15;;;;;;;16.25;77.98;100634.94;5028016;28;20466;-89
2023/06/01 01:33:39;;;;;;;4.32;2.00;;;;;;;16.45;78.66;100682.59;5027051;28;20072;-88
2023/06/01 01:36:19;;;;;;;4.38;2.20;;;;;;;16.38;79.36;100678.59;5014182;28;20042;-91
2023/06/01 01:39:02;;;;;;;4.63;2.45;;;;;;;16.18;79.78;100649.69;5033814;28;20106;-89
2023/06/01 01:41:32;;;;;;;4.63;2.20;;;;;;;16.12;80.02;100644.72;5031960;28;20053;-87
2023/06/01 01:44:05;;;;;;;5.13;2.40;;;;;;;16.27;80.52;100667.75;5032653;28;20057;-89
2023/06/01 01:46:46;;;;;;;4.20;2.33;;;;;;;16.20;80.55;100662.94;5033399;28;20056;-89
2023/06/01 01:49:30;;;;;;;5.50;2.20;;;;;;;16.06;80.45;100629.09;5034986;28;20107;-89
2023/06/01 01:52:06;;;;;;;3.15;1.95;;;;;;;16.19;80.31;100662.09;5030909;28;20108;-90
2023/06/01 01:54:46;;;;;;;5.32;2.38;;;;;;;16.18;80.96;100665.72;5031573;28;20049;-90
2023/06/01 01:57:16;;;;;;;4.35;2.17;;;;;;;15.89;81.49;100629.38;5026164;28;20049;-90
2023/06/01 01:59:46;;;;;;;5.15;2.50;;;;;;;16.04;81.92;100663.09;5044562;28;20467;-89
2023/06/01 02:02:14;;;;;;;4.25;2.30;;;;;;;16.06;82.45;100667.34;5028316;28;20099;-89
2023/06/01 02:04:43;;;;;;;4.72;2.22;;;;;;;15.89;82.11;100626.69;5030070;28;20039;-88
2023/06/01 02:07:10;;;;;;;3.55;2.15;;;;;;;15.99;82.29;100650.03;5051781;28;20072;-89
2023/06/01 02:09:38;;;;;;;4.57;2.40;;;;;;;16.00;82.76;100659.75;5032957;28;20048;-89
2023/06/01 02:12:08;;;;;;;6.38;2.50;;;;;;;15.95;83.62;100656.53;5025510;28;20052;-89
2023/06/01 02:14:35;;;;;;;5.32;2.70;;;;;;;15.94;83.56;100651.28;5025607;28;20159;-89
2023/06/01 02:17:02;;;;;;;5.72;2.50;;;;;;;15.68;82.81;100613.78;5026480;28;20041;-89
2023/06/01 02:19:34;;;;;;;3.47;2.20;;;;;;;15.87;82.52;100632.13;5026590;28;20072;-88
2023/06/01 02:22:05;;;;;;;4.13;2.42;;;;;;;15.92;83.35;100647.84;5025081;28;20045;-89
2023/06/01 02:24:34;;;;;;;;;;;;;;;15.96;82.58;100644.88;5024085;28;20047;-90
2023/06/01 02:27:02;;;;;;;3.58;2.03;;;;;;;15.98;82.41;100648.31;5025982;28;19972;-90
2023/06/01 02:29:29;;;;;;;3.72;2.15;;;;;;;16.00;81.66;100645.53;5031984;28;20037;-88
2023/06/01 02:32:06;;;;;;;4.53;2.30;;;;;;;15.82;82.14;100628.03;5038736;28;20045;-89
2023/06/01 02:34:33;;;;;;;5.22;2.20;;;;;;;15.97;82.12;100656.41;5028846;28;20080;-89
2023/06/01 02:37:00;;;;;;;5.68;2.08;;;;;;;15.98;80.24;100653.66;5026009;28;20050;-89
2023/06/01 02:39:27;;;;;;;3.88;2.38;;;;;;;16.00;80.14;100640.19;5033412;28;20121;-91
2023/06/01 02:42:01;;;;;;;4.22;1.88;;;;;;;16.05;79.94;100649.63;5031132;28;20085;-88
2023/06/01 02:44:28;;;;;;;7.57;2.25;;;;;;;15.94;79.91;100629.91;5026830;28;20041;-89
2023/06/01 02:46:55;;;;;;;3.45;2.15;;;;;;;16.03;79.93;100648.03;5022987;28;20077;-89
2023/06/01 02:49:24;;;;;;;5.28;2.17;;;;;;;15.84;79.94;100618.97;5023295;28;20081;-91
2023/06/01 02:51:52;;;;;;;5.35;2.20;;;;;;;15.98;81.06;100647.44;5023224;28;20134;-90
2023/06/01 02:54:21;;;;;;;5.75;2.25;;;;;;;15.90;80.35;100631.09;5023351;28;20102;-91
2023/06/01 02:56:48;;;;;;;5.82;2.30;;;;;;;15.95;80.56;100653.00;5023739;28;20045;-89
2023/06/01 02:59:18;;;;;;;;;;;;;;;15.92;81.04;100655.84;5022972;28;20426;-89
2023/06/01 03:01:45;;;;;;;4.03;2.13;;;;;;;15.78;81.06;100630.06;5022292;28;19917;-89
2023/06/01 03:04:14;;;;;;;5.38;2.20;;;;;;;15.84;81.30;100653.69;5020680;28;20499;-89
2023/06/01 03:06:58;;;;;;;7.47;2.10;;;;;;;15.83;81.62;100648.44;5022798;28;20046;-90
2023/06/01 03:09:29;;;;;;;4.30;2.17;;;;;;;15.73;82.00;100651.72;5021839;28;20048;-89
2023/06/01 03:11:56;;;;;;;5.07;2.20;;;;;;;15.70;81.89;100648.38;5021942;28;20049;-88
2023/06/01 03:14:26;;;;;;;3.28;2.13;;;;;;;15.53;82.65;100624.56;5021745;28;20068;-89
2023/06/01 03:16:54;;;;;;;4.18;2.20;;;;;;;15.71;81.80;100650.97;5021166;28;20122;-89
2023/06/01 03:19:21;;;;;;;4.43;2.38;;;;;;;15.54;81.99;100631.59;5021187;28;20034;-88
2023/06/01 03:21:48;;;;;;;8.50;2.22;;;;;;;15.62;82.67;100645.34;5021516;28;20070;-88
2023/06/01 03:24:17;;;;;;;4.85;2.28;;;;;;;15.57;81.92;100639.47;5021059;28;20046;-89
2023/06/01 03:26:44;;;;;;;4.60;2.03;;;;;;;15.53;81.66;100641.41;5020828;28;20088;-89
2023/06/01 03:29:20;;;;;;;5.20;2.22;;;;;;;15.60;81.41;100644.56;5021623;28;20046;-89
2023/06/01 03:31:47;;;;;;;5.00;2.15;;;;;;;15.60;81.38;100648.09;5026361;28;20077;-90
2023/06/01 03:34:14;;;;;;;7.68;2.58;;;;;;;15.58;81.55;100644.69;5026570;28;20053;-90
2023/06/01 03:36:41;;;;;;;4.07;2.40;;;;;;;15.58;81.23;100658.03;5025792;28;20148;-90
2023/06/01 03:39:09;;;;;;;6.95;2.15;;;;;;;15.37;81.63;100619.31;5027486;28;20061;-89
2023/06/01 03:41:40;;;;;;;6.32;2.20;;;;;;;15.55;81.96;100649.34;5008834;28;20076;-90
2023/06/01 03:44:08;;;;;;;6.78;2.25;;;;;;;15.49;82.42;100647.03;5024766;28;20125;-90
2023/06/01 03:46:36;;;;;;;4.88;2.63;;;;;;;15.54;82.53;100658.28;5026801;28;20149;-88
2023/06/01 03:49:07;;;;;;;5.22;2.30;;;;;;;15.22;83.00;100601.63;5025480;28;20069;-89
2023/06/01 03:51:38;;;;;;;4.47;2.38;;;;;;;15.51;83.65;100658.47;5026444;28;20367;-90
2023/06/01 03:54:09;;;;;;;5.50;2.40;;;;;;;15.48;83.29;100646.19;5009013;28;20054;-89
2023/06/01 03:56:36;;;;;;;3.83;1.90;;;;;;;15.42;83.29;100638.59;5036586;28;20075;-90
2023/06/01 03:59:03;;;;;;;3.75;2.33;;;;;;;15.49;82.71;100647.03;5039326;28;20070;-89
2023/06/01 04:01:39;;;;;;;4.63;2.55;;;;;;;15.45;83.40;100638.38;5026998;28;20443;-90
2023/06/01 04:04:08;;;;;;;4.03;2.20;;;;;;;15.44;83.36;100636.66;5025146;28;20056;-89
2023/06/01 04:06:37;;;;;;;5.05;2.20;;;;;;;15.52;83.76;100642.38;5026210;28;20057;-89
2023/06/01 04:09:11;;;;;;;5.75;2.45;;;;;;;15.45;83.89;100636.56;5024615;28;20372;-88
2023/06/01 04:11:38;;;;;;;5.18;2.55;;;;;;;15.47;83.63;100636.47;5025101;28;20033;-88
2023/06/01 04:14:07;;;;;;;3.92;2.10;;;;;;;15.54;84.38;100650.28;5023680;28;20156;-88
2023/06/01 04:16:37;;;;;;;5.68;2.40;;;;;;;15.58;84.73;100651.84;5024276;28;20046;-88
2023/06/01 04:19:06;;;;;;;5.03;2.22;;;;;;;15.52;84.10;100629.03;5009652;28;20060;-88
2023/06/01 04:21:33;;;;;;;5.32;2.42;;;;;;;15.61;84.91;100648.97;5024436;28;20109;-87
2023/06/01 04:24:00;;;;;;;6.30;2.40;;;;;;;15.51;85.31;100632.66;5025127;28;20057;-88
2023/06/01 04:26:31;;;;;;;4.78;2.40;;;;;;;15.53;85.24;100641.41;5026997;28;20049;-87
2023/06/01 04:29:03;;;;;;;5.57;2.60;;;;;;;15.64;85.09;100646.97;5008742;28;20042;-88
2023/06/01 04:31:32;;;;;;;6.30;2.50;;;;;;;15.63;85.13;100650.59;5030236;28;20118;-89
2023/06/01 04:34:01;;;;;;;;;;;;;;;15.69;85.52;100657.34;5032648;28;20069;-88
2023/06/01 04:36:29;;;;;;;7.03;2.45;;;;;;;15.74;85.36;100653.41;5029114;28;19924;-88
2023/06/01 04:39:11;;;;;;;4.85;2.38;;;;;;;15.72;85.37;100650.00;5024297;28;20036;-87
2023/06/01 04:41:38;;;;;;;5.60;2.47;;;;;;;15.61;86.41;100628.47;5006247;28;20050;-89
2023/06/01 04:44:12;;;;;;;4.00;2.17;;;;;;;15.73;86.90;100649.06;5022270;28;20080;-88
2023/06/01 04:46:40;;;;;;;4.88;2.40;;;;;;;15.85;85.30;100658.09;5023381;28;20167;-88
2023/06/01 04:49:11;;;;;;;3.08;2.20;;;;;;;15.58;85.42;100606.47;5025044;28;20046;-89
2023/06/01 04:51:40;;;;;;;5.55;2.45;;;;;;;15.89;85.00;100654.25;5024470;28;20049;-88
2023/06/01 04:54:11;;;;;;;3.30;2.08;;;;;;;16.00;85.60;100657.09;5023929;28;20124;-88
2023/06/01 04:56:53;;;;;;;5.82;2.25;;;;;;;15.98;84.07;100659.00;5026209;28;20056;-89
2023/06/01 04:59:23;;;;;;;3.67;2.17;;;;;;;15.92;83.67;100627.34;5026406;28;20068;-88
2023/06/01 05:01:52;;;;;;;8.48;2.92;;;;;;;16.01;83.64;100637.44;5026232;28;20049;-86
2023/06/01 05:04:22;;;;;;;8.73;2.08;;;;;;;16.18;84.22;100662.19;5010517;28;20042;-88
2023/06/01 05:06:50;;;;;;;4.32;2.13;;;;;;;16.07;83.39;100629.00;5024087;28;20137;-88
2023/06/01 05:09:20;;;;;;;4.95;2.30;;;;;;;16.24;83.79;100657.28;5022507;28;20056;-88
2023/06/01 05:11:49;;;;;;;4.38;2.30;;;;;;;16.28;83.96;100653.44;5023915;28;20050;-88
2023/06/01 05:14:19;;;;;;;3.05;2.25;;;;;;;16.39;83.88;100663.41;5026868;28;20072;-87
2023/06/01 05:16:49;;;;;;;5.93;2.60;;;;;;;16.48;82.16;100666.34;5022618;28;20117;-88
2023/06/01 05:19:16;;;;;;;5.20;2.50;;;;;;;16.56;82.74;100664.94;5032866;28;20479;-87
2023/06/01 05:21:51;;;;;;;4.90;2.60;;;;;;;16.47;81.12;100653.94;5027817;28;20046;-88
2023/06/01 05:24:19;;;;;;;5.90;2.65;;;;;;;16.56;80.81;100638.22;5023897;28;20057;-89
2023/06/01 05:26:59;;;;;;;3.58;2.33;;;;;;;16.71;79.61;100653.25;5024713;28;20045;-86
2023/06/01 05:29:27;;;;;;;6.40;2.65;;;;;;;16.74;79.98;100655.72;5023813;28;20364;-88
2023/06/01 05:31:54;;;;;;;6.72;2.45;;;;;;;16.83;79.20;100668.47;5024727;28;20418;-88
2023/06/01 05:34:22;;;;;;;6.53;2.42;;;;;;;16.80;79.61;100647.28;5024732;28;20046;-88
2023/06/01 05:36:52;;;;;;;4.50;1.90;;;;;;;16.98;79.63;100669.25;5031007;28;20050;-87
2023/06/01 05:39:19;;;;;;;4.28;2.28;;;;;;;17.05;77.76;100666.03;5035331;28;20053;-87
2023/06/01 05:41:57;;;;;;;4.40;2.08;;;;;;;17.15;76.72;100669.78;5037515;28;20113;-87
2023/06/01 05:44:53;;;;;;;3.78;1.95;;;;;;;17.21;76.80;100665.81;5019367;28;20080;-86
2023/06/01 05:47:30;;;;;;;5.70;2.40;;;;;;;17.10;77.01;100629.09;5035641;28;20046;-87
2023/06/01 05:50:05;;;;;;;7.90;2.50;;;;;;;17.39;77.12;100660.97;5021816;28;20189;-89
2023/06/01 05:52:33;;;;;;;3.55;2.00;;;;;;;17.49;76.31;100668.25;5034229;28;20077;-89
2023/06/01 05:55:00;;;;;;;6.53;2.40;;;;;;;17.57;75.71;100650.78;5032485;28;20073;-88
2023/06/01 05:57:30;;;;;;;4.72;2.20;;;;;;;17.69;72.88;100653.47;5011637;28;20067;-88
2023/06/01 06:00:17;;;;;;;5.88;2.40;;;;;;;17.76;72.21;100659.25;5009164;28;20053;-87
2023/06/01 06:02:50;;;;;;;5.28;2.20;;;;;;;17.90;72.51;100674.31;5019265;28;20060;-88
2023/06/01 06:05:21;;;;;;;6.13;2.17;;;;;;;18.05;71.48;100666.00;5027604;28;20042;-88
2023/06/01 06:07:49;;;;;;;4.65;2.17;;;;;;;18.23;71.41;100664.63;5026227;28;20092;-87
2023/06/01 06:10:23;;;;;;;5.05;2.20;;;;;;;18.48;69.06;100657.41;5025675;28;20080;-87
2023/06/01 06:12:53;;;;;;;4.40;2.10;;;;;;;18.79;68.09;100662.19;5024477;28;20038;-86
2023/06/01 06:15:29;;;;;;;5.80;2.30;;;;;;;19.11;64.40;100651.63;5026970;28;20061;-87
2023/06/01 06:17:58;;;;;;;6.68;2.30;;;;;;;19.50;62.07;100653.06;5030927;28;20052;-87
2023/06/01 06:20:29;;;;;;;6.43;2.17;;;;;;;20.00;60.10;100669.56;5030031;28;20042;-88
2023/06/01 06:22:58;;;;;;;7.15;2.35;;;;;;;20.45;57.06;100664.97;5025410;28;20046;-87
2023/06/01 06:25:27;;;;;;;4.60;2.45;;;;;;;20.71;56.13;100656.50;5025508;28;20061;-88
2023/06/01 06:27:56;;;;;;;4.40;2.13;;;;;;;21.20;55.39;100664.81;5027427;28;20046;-87
2023/06/01 06:30:24;;;;;;;7.43;2.00;;;;;;;21.59;52.67;100668.50;5033809;28;20037;-87
2023/06/01 06:32:51;;;;;;;5.00;2.00;;;;;;;21.96;51.67;100673.31;5034250;28;20498;-86
2023/06/01 06:35:21;;;;;;;3.85;2.00;;;;;;;22.20;49.57;100651.38;5028674;28;20045;-87
2023/06/01 06:38:16;;;;;;;6.38;2.10;;;;;;;22.53;48.16;100671.72;4991426;28;20050;-89
2023/06/01 06:40:53;;;;;;;3.00;2.00;;;;;;;22.71;48.06;100678.97;4986941;28;20559;-88
2023/06/01 06:43:20;;;;;;;4.28;2.22;;;;;;;22.78;47.48;100679.28;4987236;28;20084;-87
2023/06/01 06:45:50;;;;;;;4.50;2.10;;;;;;;22.88;47.39;100673.84;4991875;28;20041;-86
2023/06/01 06:48:22;;;;;;;10.30;2.50;;;;;;;23.05;47.90;100673.97;4990265;28;20050;-87
2023/06/01 06:50:50;;;;;;;4.40;2.15;;;;;;;23.12;48.26;100682.38;4992849;28;20081;-88
2023/06/01 06:53:31;;;;;;;3.72;2.05;;;;;;;23.32;47.83;100673.19;5008053;28;20606;-88
2023/06/01 06:56:01;;;;;;;7.82;2.10;;;;;;;23.49;46.38;100674.25;4999565;28;20045;-88
2023/06/01 06:58:35;;;;;;;5.03;2.45;;;;;;;23.56;47.53;100677.28;5007431;28;20096;-88
2023/06/01 07:01:11;;;;;;;4.82;2.17;;;;;;;23.62;47.95;100645.06;5024921;28;20386;-88
2023/06/01 07:03:47;;;;;;;3.88;2.00;;;;;;;24.03;45.69;100676.16;5022159;28;20053;-87
2023/06/01 07:06:18;;;;;;;3.72;2.13;;;;;;;24.09;44.76;100664.72;5031214;28;20069;-89
2023/06/01 07:08:52;;;;;;;6.13;2.53;;;;;;;24.18;47.64;100672.94;5032769;28;20057;-87
2023/06/01 07:11:46;;;;;;;4.45;2.28;;;;;;;24.27;46.31;100666.63;5030280;28;20128;-89
2023/06/01 07:18:18;;;;;;;4.20;2.67;;;;;;;24.16;45.33;100672.25;5030512;28;20068;-89
2023/06/01 07:20:45;;;;;;;7.40;2.35;;;;;;;24.24;45.77;100642.63;5029876;28;20050;-88
2023/06/01 07:23:15;;;;;;;4.55;2.00;;;;;;;24.54;43.60;100663.03;5026005;28;20041;-88
2023/06/01 07:26:29;;;;;;;5.45;1.70;;;;;;;24.47;43.17;100662.78;5027189;28;20049;-88
2023/06/01 07:32:44;;;;;;;5.13;2.10;;;;;;;25.04;43.11;100668.69;4992334;28;20036;-88
2023/06/01 07:35:33;;;;;;;4.50;2.10;;;;;;;25.00;40.57;100651.06;5011062;28;20038;-88
2023/06/01 07:38:24;;;;;;;4.93;2.33;;;;;;;25.17;41.24;100667.28;5025991;28;20105;-88
2023/06/01 07:41:30;;;;;;;4.40;1.70;;;;;;;25.21;42.29;100672.38;5030616;28;20045;-89
2023/06/01 07:44:12;;;;;;;3.95;1.90;;;;;;;24.80;43.18;100623.28;5027542;28;20187;-88
2023/06/01 07:46:44;;;;;;;4.03;1.98;;;;;;;25.02;43.01;100668.03;5027202;28;20041;-90
2023/06/01 07:49:28;;;;;;;2.90;1.85;;;;;;;25.15;42.84;100663.88;5043369;28;20050;-89
2023/06/01 07:56:07;;;;;;;3.20;1.90;;;;;;;24.93;42.07;100658.94;4987261;28;20048;-89
2023/06/01 07:58:59;;;;;;;5.90;2.25;;;;;;;24.80;45.27;100664.78;5034949;28;20103;-88
2023/06/01 08:01:42;;;;;;;5.63;1.75;;;;;;;24.80;42.92;100656.66;5045781;28;20045;-89
2023/06/01 08:04:33;;;;;;;5.20;2.05;;;;;;;24.89;41.61;100624.19;5021253;28;20049;-88
2023/06/01 08:07:06;;;;;;;5.25;2.13;;;;;;;25.13;41.75;100654.22;5014363;28;20072;-88
2023/06/01 08:09:37;;;;;;;4.05;1.70;;;;;;;25.12;42.42;100647.09;5029829;28;20046;-88
2023/06/01 08:12:14;;;;;;;5.28;1.98;;;;;;;25.28;42.03;100649.91;5027843;28;20072;-89
2023/06/01 08:15:17;;;;;;;5.88;2.10;;;;;;;25.45;41.66;100651.69;5043084;28;20040;-89
2023/06/01 08:18:34;;;;;;;4.55;2.03;;;;;;;25.65;40.03;100648.75;5052504;28;20032;-88
2023/06/01 08:22:14;;;;;;;4.50;2.33;;;;;;;25.58;40.69;100636.81;5060235;28;20065;-88
2023/06/01 08:25:20;;;;;;;6.38;2.15;;;;;;;25.33;41.03;100603.34;4976585;29;20051;-87
2023/06/01 08:28:16;;;;;;;3.85;1.80;;;;;;;25.36;40.74;100600.28;4978869;29;20051;-90
2023/06/01 08:31:12;;;;;;;5.50;2.70;;;;;;;25.67;40.50;100627.72;4993854;28;20074;-88
2023/06/01 08:37:40;;;;;;;6.55;2.10;;;;;;;25.52;39.56;100560.53;4997005;28;20131;-88
2023/06/01 08:47:46;;;;;;;3.97;1.90;;;;;;;25.67;37.36;100608.75;5002305;28;20140;-89
2023/06/01 08:50:38;;;;;;;4.00;1.73;;;;;;;25.29;39.73;100605.50;4996473;28;20105;-88
2023/06/01 08:53:17;;;;;;;6.28;1.67;;;;;;;25.34;40.77;100608.56;5014320;28;20057;-89
2023/06/01 09:00:08;;;;;;;6.45;2.10;;;;;;;25.76;37.82;100605.91;5005369;28;20387;-90
2023/06/01 09:02:46;;;;;;;3.67;1.90;;;;;;;25.85;37.80;100606.78;5008871;28;20076;-88
2023/06/01 09:05:33;;;;;;;5.25;1.90;;;;;;;26.06;37.68;100601.75;5037959;28;20055;-88
2023/06/01 09:08:09;;;;;;;5.00;2.03;;;;;;;25.95;36.10;100583.06;5017807;28;20140;-88
2023/06/01 09:10:52;;;;;;;6.35;1.48;;;;;;;26.29;37.40;100603.84;5016847;28;20051;-87
2023/06/01 09:13:37;;;;;;;5.75;2.33;;;;;;;26.10;37.71;100603.13;5033431;28;20034;-86
2023/06/01 09:16:41;;;;;;;5.15;2.22;;;;;;;25.80;36.73;100598.31;5039518;28;20052;-88
2023/06/01 09:19:33;;;;;;;3.45;2.10;;;;;;;25.45;38.99;100597.47;5055128;28;20037;-89
2023/06/01 09:22:12;;;;;;;4.00;2.10;;;;;;;24.93;40.52;100566.84;5053231;28;20037;-86
2023/06/01 09:25:04;;;;;;;3.97;2.10;;;;;;;24.95;41.87;100593.78;5051195;28;20458;-87
2023/06/01 09:46:20;;;;;;;4.63;1.90;;;;;;;24.16;38.85;100572.97;5861721;22;8394049;-88
2023/06/01 09:56:01;;;;;;;2.88;1.90;;;;;;;24.68;38.36;100575.81;6231483;22;20042;-90
2023/06/01 09:59:02;;;;;;;5.10;1.80;;;;;;;24.65;39.07;100562.59;6082933;23;20010;-89
2023/06/01 10:05:13;;;;;;;3.60;1.90;;;;;;;24.55;37.69;100543.75;6123681;23;20030;-90
2023/06/01 10:11:30;;;;;;;1.92;1.50;;;;;;;24.74;36.26;100545.38;6108543;23;20065;-90
2023/06/01 10:14:05;;;;;;;4.07;1.50;;;;;;;24.97;35.19;100565.53;6098521;23;20010;-90
2023/06/01 10:16:50;;;;;;;2.33;1.60;;;;;;;24.67;32.79;100545.19;6092183;23;20048;-90
2023/06/01 10:19:41;;;;;;;6.90;1.58;;;;;;;24.69;31.41;100534.19;6098684;23;20054;-89
2023/06/01 10:22:13;;;;;;;5.50;1.67;;;;;;;24.95;33.05;100559.44;6107891;23;20014;-88
2023/06/01 10:28:12;;;;;;;2.35;1.67;;;;;;;25.11;33.16;100545.97;6200518;23;20055;-89
2023/06/01 10:31:27;;;;;;;5.95;1.88;;;;;;;25.15;35.27;100549.22;6219778;23;20055;-88
2023/06/01 10:34:37;;;;;;;4.20;1.73;;;;;;;25.05;36.30;100522.22;6223306;23;20031;-90
2023/06/01 10:37:29;;;;;;;4.97;1.80;;;;;;;25.11;35.98;100537.84;6242199;23;20027;-89
2023/06/01 10:40:24;;;;;;;3.45;1.58;;;;;;;25.14;35.30;100540.22;6208329;23;20028;-90
2023/06/01 10:45:50;;;;;;;2.85;1.60;;;;;;;25.13;33.68;100534.97;6303316;22;20027;-88
2023/06/01 10:49:13;;;;;;;3.00;1.58;;;;;;;25.27;34.06;100539.78;6257080;22;20020;-90
2023/06/01 10:52:38;;;;;;;3.03;1.38;;;;;;;25.38;33.71;100535.91;6297466;22;20049;-90
2023/06/01 10:55:13;;;;;;;3.25;1.50;;;;;;;25.40;33.38;100536.59;6268612;22;20095;-90
2023/06/01 11:09:38;;;;;;;3.25;1.67;;;;;;;25.97;34.17;100518.63;6300853;22;20042;-96
2023/06/01 11:13:11;;;;;;;3.95;1.60;;;;;;;26.08;32.83;100520.16;6305516;22;20011;-96
2023/06/01 11:16:14;;;;;;;5.25;1.67;;;;;;;26.04;32.99;100519.66;6301121;22;20126;-96
2023/06/01 11:33:34;;;;;;;2.70;1.75;;;;;;;26.08;32.77;100498.44;6209507;23;20019;-93
2023/06/01 11:42:49;;;;;;;6.28;1.70;;;;;;;26.09;34.05;100492.84;6210881;22;20028;-95
2023/06/01 11:52:21;;;;;;;3.38;1.85;;;;;;;26.24;33.47;100443.31;6204505;23;20035;-94
2023/06/01 11:55:11;;;;;;;4.43;2.00;;;;;;;26.41;33.76;100472.16;6229601;22;20020;-95
2023/06/01 12:01:22;;;;;;;3.10;1.90;;;;;;;26.73;33.79;100473.97;6169123;22;20035;-96
2023/06/01 12:04:32;;;;;;;4.82;2.10;;;;;;;26.85;32.35;100480.69;6212380;23;20011;-95
2023/06/01 12:11:14;;;;;;;3.53;2.05;;;;;;;26.92;32.00;100474.38;6233376;23;20299;-92
2023/06/01 12:18:00;;;;;;;2.72;1.70;;;;;;;26.99;32.59;100433.81;6234541;22;20084;-94
2023/06/01 12:25:05;;;;;;;3.83;1.75;;;;;;;27.25;31.15;100466.09;6172876;23;20017;-94
2023/06/01 12:28:17;;;;;;;4.97;2.10;;;;;;;27.13;30.62;100464.81;6180868;23;20027;-92
2023/06/01 12:31:26;;;;;;;3.45;1.90;;;;;;;26.75;30.97;100406.72;6227003;22;20005;-95
2023/06/01 12:38:34;;;;;;;3.65;1.92;;;;;;;27.19;31.11;100423.34;6242450;22;20020;-94
2023/06/01 12:41:35;;;;;;;4.35;1.60;;;;;;;27.26;31.05;100448.78;6300685;22;20023;-94
2023/06/01 12:44:33;;;;;;;5.82;1.83;;;;;;;27.21;30.50;100438.47;6278857;22;20034;-93
2023/06/01 12:47:24;;;;;;;5.13;1.90;;;;;;;27.02;30.39;100427.16;6281530;22;20039;-94
2023/06/01 12:50:45;;;;;;;2.97;1.92;;;;;;;26.79;30.94;100386.31;6304115;22;20026;-95
2023/06/01 13:01:12;;;;;;;4.68;1.65;;;;;;;27.19;31.01;100418.75;6146467;23;20522;-93
2023/06/01 13:04:00;;;;;;;3.63;1.63;;;;;;;27.23;31.37;100403.75;6122314;23;20064;-93
2023/06/01 13:07:05;;;;;;;4.53;1.70;;;;;;;27.23;31.16;100383.91;6126900;23;20021;-93
2023/06/01 13:10:22;;;;;;;4.38;1.85;;;;;;;27.20;30.42;100398.69;6149603;23;20025;-93
2023/06/01 13:13:15;;;;;;;3.50;1.88;;;;;;;27.10;29.79;100408.94;6141806;23;20021;-93
2023/06/01 13:16:07;;;;;;;4.60;1.90;;;;;;;26.86;29.90;100358.25;6106939;23;20094;-92
2023/06/01 13:19:19;;;;;;;3.20;1.70;;;;;;;26.85;31.83;100307.66;6147524;23;20033;-94
2023/06/01 13:33:51;;;;;;;2.67;1.77;;;;;;;27.71;30.42;100362.81;6211945;23;20020;-93
2023/06/01 13:36:35;;;;;;;2.47;1.65;;;;;;;27.68;29.60;100355.03;6207892;23;20081;-94
2023/06/01 13:39:33;;;;;;;5.38;1.63;;;;;;;27.85;29.08;100383.78;6116402;23;20057;-93
2023/06/01 13:42:20;;;;;;;2.20;1.70;;;;;;;27.88;29.26;100377.97;6093650;23;20007;-92
2023/06/01 13:45:36;;;;;;;4.35;2.00;;;;;;;27.91;28.77;100370.28;6052146;23;20101;-94
2023/06/01 13:48:42;;;;;;;4.63;1.67;;;;;;;27.98;29.71;100350.50;6034682;23;20023;-93
2023/06/01 13:52:25;;;;;;;4.35;1.90;;;;;;;28.31;29.86;100360.03;6093224;23;20138;-93
2023/06/01 13:58:48;;;;;;;5.55;1.90;;;;;;;28.08;29.75;100311.06;6093520;23;20018;-93
2023/06/01 14:05:38;;;;;;;3.17;1.73;;;;;;;28.33;30.38;100341.63;6023622;23;20015;-93
2023/06/01 14:16:11;;;;;;;2.95;1.88;;;;;;;28.04;31.04;100331.53;6088696;23;20046;-93
2023/06/01 14:18:53;;;;;;;4.25;1.77;;;;;;;27.88;30.96;100331.69;6066127;23;20070;-93
2023/06/01 14:21:52;;;;;;;4.45;1.60;;;;;;;27.92;29.85;100311.25;5997318;23;20048;-94
2023/06/01 14:24:33;;;;;;;6.13;1.95;;;;;;;28.19;30.43;100324.25;6064531;23;20019;-94
2023/06/01 14:35:01;;;;;;;5.05;1.90;;;;;;;28.78;29.66;100317.91;6153495;23;20020;-94
2023/06/01 14:37:45;;;;;;;5.22;1.90;;;;;;;28.71;29.89;100312.38;6150602;23;20041;-95
2023/06/01 14:44:29;;;;;;;3.00;2.10;;;;;;;28.68;29.07;100285.50;6173668;23;20040;-94
2023/06/01 14:47:15;;;;;;;4.78;1.83;;;;;;;28.66;29.55;100298.47;6153934;23;20010;-93
2023/06/01 14:50:15;;;;;;;3.63;1.95;;;;;;;28.36;29.48;100267.72;6155335;23;20086;-93
2023/06/01 14:53:06;;;;;;;4.13;1.85;;;;;;;28.32;30.96;100284.63;6220986;22;20038;-92
2023/06/01 14:55:58;;;;;;;6.20;1.77;;;;;;;28.20;30.28;100285.09;6250942;22;20026;-94
2023/06/01 14:58:41;;;;;;;5.80;1.77;;;;;;;28.19;30.56;100301.63;6226211;23;20016;-92
2023/06/01 15:01:34;;;;;;;2.47;1.70;;;;;;;28.12;30.28;100274.28;6227497;23;20012;-93
2023/06/01 15:04:34;;;;;;;4.18;2.17;;;;;;;27.93;30.84;100244.91;6259460;22;20049;-92
2023/06/01 15:07:51;;;;;;;2.78;1.85;;;;;;;28.16;31.35;100293.81;6280511;22;20016;-95
2023/06/01 15:10:53;;;;;;;6.40;2.00;;;;;;;28.01;31.68;100291.09;6209357;23;20029;-95
2023/06/01 15:13:38;;;;;;;2.53;1.65;;;;;;;27.84;31.58;100249.59;6209648;23;20029;-94
2023/06/01 15:16:50;;;;;;;3.15;2.13;;;;;;;28.16;32.68;100267.44;6189976;23;20027;-94